createdAt,value
2022-10-20T00:01:52.519Z,4.85
2022-10-20T00:04:19.383Z,4.40
2022-10-20T00:06:46.264Z,4.32
2022-10-20T00:09:13.195Z,4.43
2022-10-20T00:11:39.991Z,4.05
2022-10-20T00:14:06.733Z,3.97
2022-10-20T00:16:37.124Z,4.78
2022-10-20T00:19:04.392Z,4.50
2022-10-20T00:21:32.721Z,3.70
2022-10-20T00:24:01.613Z,3.88
2022-10-20T00:26:29.907Z,4.18
2022-10-20T00:28:57.379Z,3.70
2022-10-20T00:31:25.203Z,3.72
2022-10-20T00:33:52.368Z,4.70
2022-10-20T00:36:21.380Z,3.85
2022-10-20T00:38:48.726Z,3.83
2022-10-20T00:41:21.165Z,4.47
2022-10-20T00:44:15.735Z,3.85
2022-10-20T00:46:43.442Z,4.13
2022-10-20T00:49:20.799Z,4.00
2022-10-20T00:51:48.040Z,4.38
2022-10-20T00:54:18.293Z,4.32
2022-10-20T00:56:47.432Z,3.75
2022-10-20T00:59:18.654Z,4.67
2022-10-20T01:01:46.105Z,3.58
2022-10-20T01:04:13.183Z,4.85
2022-10-20T01:06:40.150Z,3.97
2022-10-20T01:09:07.905Z,3.80
2022-10-20T01:12:13.219Z,3.80
2022-10-20T01:15:09.364Z,4.10
2022-10-20T01:17:57.448Z,4.18
2022-10-20T01:20:42.425Z,3.70
2022-10-20T01:23:18.001Z,4.38
2022-10-20T01:25:53.794Z,4.13
2022-10-20T01:28:39.001Z,3.80
2022-10-20T01:31:19.539Z,4.00
2022-10-20T01:34:07.390Z,4.25
2022-10-20T01:37:05.412Z,3.50
2022-10-20T01:39:36.535Z,3.60
2022-10-20T01:42:16.338Z,4.75
2022-10-20T01:44:44.687Z,4.35
2022-10-20T01:47:12.240Z,4.43
2022-10-20T01:49:43.483Z,4.47
2022-10-20T01:52:13.761Z,3.70
2022-10-20T01:54:40.664Z,3.90
2022-10-20T01:57:26.032Z,4.07
2022-10-20T02:00:08.901Z,4.18
2022-10-20T02:03:12.893Z,4.20
2022-10-20T02:06:03.210Z,3.63
2022-10-20T02:08:38.624Z,4.22
2022-10-20T02:11:07.921Z,4.13
2022-10-20T02:13:37.308Z,3.60
2022-10-20T02:16:11.825Z,3.40
2022-10-20T02:18:42.814Z,3.42
2022-10-20T02:21:11.913Z,3.40
2022-10-20T02:23:44.405Z,3.40
2022-10-20T02:26:15.069Z,3.90
2022-10-20T02:28:47.150Z,3.67
2022-10-20T02:31:14.389Z,3.83
2022-10-20T02:33:44.523Z,3.60
2022-10-20T02:36:16.957Z,4.00
2022-10-20T02:38:43.887Z,3.40
2022-10-20T02:41:11.104Z,3.80
2022-10-20T02:43:38.152Z,3.88
2022-10-20T02:46:05.089Z,3.60
2022-10-20T02:48:31.823Z,3.67
2022-10-20T02:50:58.649Z,3.70
2022-10-20T02:53:25.462Z,4.05
2022-10-20T02:55:52.266Z,3.70
2022-10-20T02:58:19.094Z,4.32
2022-10-20T03:00:45.817Z,3.70
2022-10-20T03:03:12.571Z,4.20
2022-10-20T03:05:42.089Z,3.75
2022-10-20T03:08:08.883Z,3.65
2022-10-20T03:10:37.310Z,4.07
2022-10-20T03:13:05.433Z,3.95
2022-10-20T03:15:32.561Z,3.78
2022-10-20T03:17:59.410Z,3.88
2022-10-20T03:20:26.295Z,3.50
2022-10-20T03:22:53.030Z,4.10
2022-10-20T03:25:19.753Z,4.10
2022-10-20T03:27:46.536Z,3.85
2022-10-20T03:30:13.384Z,3.47
2022-10-20T03:32:40.155Z,3.75
2022-10-20T03:35:07.576Z,3.72
2022-10-20T03:37:34.379Z,4.80
2022-10-20T03:40:01.104Z,3.70
2022-10-20T03:42:27.900Z,3.70
2022-10-20T03:44:54.605Z,4.22
2022-10-20T03:47:21.328Z,3.80
2022-10-20T03:49:48.408Z,3.92
2022-10-20T03:52:15.264Z,3.50
2022-10-20T03:54:44.150Z,4.35
2022-10-20T03:57:10.996Z,4.03
2022-10-20T03:59:37.689Z,4.50
2022-10-20T04:02:04.781Z,3.83
2022-10-20T04:04:31.647Z,4.05
2022-10-20T04:06:58.383Z,4.07
2022-10-20T04:09:25.107Z,3.70
2022-10-20T04:11:51.912Z,3.90
2022-10-20T04:14:18.643Z,3.92
2022-10-20T04:16:45.304Z,4.32
2022-10-20T04:19:12.034Z,4.60
2022-10-20T04:21:38.735Z,4.82
2022-10-20T04:24:07.340Z,4.10
2022-10-20T04:26:34.258Z,3.88
2022-10-20T04:29:01.269Z,3.72
2022-10-20T04:31:27.947Z,4.10
2022-10-20T04:33:54.695Z,4.00
2022-10-20T04:36:21.397Z,3.83
2022-10-20T04:38:48.092Z,4.45
2022-10-20T04:41:14.874Z,3.97
2022-10-20T04:43:41.575Z,3.50
2022-10-20T04:46:08.707Z,3.72
2022-10-20T04:48:36.619Z,3.10
2022-10-20T04:51:08.915Z,3.95
2022-10-20T04:53:36.226Z,3.80
2022-10-20T04:56:04.421Z,3.67
2022-10-20T04:58:31.371Z,3.55
2022-10-20T05:01:07.743Z,3.85
2022-10-20T05:03:35.366Z,3.95
2022-10-20T05:06:20.101Z,4.00
2022-10-20T05:08:49.250Z,3.60
2022-10-20T05:11:17.200Z,4.25
2022-10-20T05:13:44.320Z,3.60
2022-10-20T05:16:11.986Z,3.83
2022-10-20T05:18:40.040Z,4.43
2022-10-20T05:21:12.171Z,4.55
2022-10-20T05:23:40.164Z,3.55
2022-10-20T05:26:10.746Z,3.80
2022-10-20T05:28:37.688Z,4.32
2022-10-20T05:31:06.976Z,3.88
2022-10-20T05:33:34.686Z,4.00
2022-10-20T05:36:07.673Z,3.30
2022-10-20T05:38:36.870Z,2.78
2022-10-20T05:41:18.061Z,2.70
2022-10-20T05:43:50.106Z,2.65
2022-10-20T05:46:18.084Z,3.42
2022-10-20T05:48:45.604Z,2.85
2022-10-20T05:51:16.589Z,3.42
2022-10-20T05:53:44.540Z,3.60
2022-10-20T05:56:15.093Z,3.65
2022-10-20T05:58:43.076Z,4.15
2022-10-20T06:01:24.114Z,2.92
2022-10-20T06:03:58.547Z,3.03
2022-10-20T06:06:30.856Z,3.95
2022-10-20T06:08:59.913Z,3.28
2022-10-20T06:11:27.164Z,3.43
2022-10-20T06:13:54.002Z,4.22
2022-10-20T06:16:23.560Z,3.45
2022-10-20T06:18:51.402Z,3.28
2022-10-20T06:21:28.720Z,4.15
2022-10-20T06:23:55.773Z,3.05
2022-10-20T06:26:30.110Z,3.53
2022-10-20T06:29:03.643Z,4.18
2022-10-20T06:31:34.631Z,2.70
2022-10-20T06:34:04.110Z,3.20
2022-10-20T06:36:30.814Z,4.03
2022-10-20T06:38:59.087Z,4.15
2022-10-20T06:41:27.246Z,3.50
2022-10-20T06:43:58.700Z,4.55
2022-10-20T06:46:27.112Z,3.20
2022-10-20T06:48:57.885Z,3.95
2022-10-20T06:51:26.158Z,3.60
2022-10-20T06:53:53.213Z,5.43
2022-10-20T06:56:29.034Z,4.32
2022-10-20T06:58:57.494Z,3.88
2022-10-20T07:01:27.209Z,3.40
2022-10-20T07:03:59.662Z,3.90
2022-10-20T07:06:28.615Z,3.85
2022-10-20T07:09:00.079Z,4.05
2022-10-20T07:11:29.181Z,3.42
2022-10-20T07:13:57.630Z,3.58
2022-10-20T07:16:26.236Z,4.30
2022-10-20T07:18:53.931Z,3.63
2022-10-20T07:21:22.976Z,4.88
2022-10-20T07:23:50.724Z,4.27
2022-10-20T07:26:20.464Z,5.25
2022-10-20T07:28:53.299Z,5.20
2022-10-20T07:31:30.788Z,5.03
2022-10-20T07:34:12.892Z,4.00
2022-10-20T07:36:47.053Z,4.45
2022-10-20T07:39:13.990Z,3.85
2022-10-20T07:41:44.109Z,4.20
2022-10-20T07:44:11.008Z,4.32
2022-10-20T07:46:37.749Z,4.72
2022-10-20T07:49:42.325Z,4.90
2022-10-20T07:51:51.406Z,3.80
2022-10-20T07:54:18.524Z,3.70
2022-10-20T07:56:46.339Z,4.13
2022-10-20T07:59:14.586Z,4.10
2022-10-20T08:01:42.046Z,4.00
2022-10-20T08:04:08.891Z,4.78
2022-10-20T08:06:35.744Z,4.35
2022-10-20T08:09:02.617Z,5.00
2022-10-20T08:11:29.815Z,4.28
2022-10-20T08:13:56.731Z,4.30
2022-10-20T08:16:28.640Z,5.38
2022-10-20T08:18:58.131Z,4.53
2022-10-20T08:21:25.489Z,4.53
2022-10-20T08:23:52.206Z,4.57
2022-10-20T08:26:24.400Z,3.83
2022-10-20T08:28:53.461Z,4.25
2022-10-20T08:31:21.123Z,5.27
2022-10-20T08:33:52.357Z,4.30
2022-10-20T08:36:20.992Z,3.85
2022-10-20T08:38:48.532Z,4.40
2022-10-20T08:41:38.738Z,4.63
2022-10-20T08:44:25.246Z,5.03
2022-10-20T08:46:52.641Z,5.57
2022-10-20T08:49:32.680Z,5.22
2022-10-20T08:54:26.317Z,4.38
2022-10-20T08:56:53.137Z,5.00
2022-10-20T08:59:19.901Z,4.53
2022-10-20T09:01:46.806Z,5.38
2022-10-20T09:04:21.555Z,5.15
2022-10-20T09:06:54.242Z,5.88
2022-10-20T09:09:23.717Z,5.32
2022-10-20T09:11:51.394Z,4.35
2022-10-20T09:14:18.216Z,6.05
2022-10-20T09:16:59.832Z,4.05
2022-10-20T09:19:28.764Z,4.75
2022-10-20T09:21:58.321Z,4.60
2022-10-20T09:24:30.277Z,4.30
2022-10-20T09:27:16.152Z,5.22
2022-10-20T09:29:42.877Z,4.90
2022-10-20T09:32:51.639Z,5.18
2022-10-20T09:35:25.506Z,6.25
2022-10-20T09:38:01.732Z,4.70
2022-10-20T09:40:28.532Z,5.28
2022-10-20T09:43:17.292Z,4.57
2022-10-20T09:45:54.409Z,4.30
2022-10-20T09:48:25.948Z,4.20
2022-10-20T09:50:56.248Z,4.40
2022-10-20T09:53:30.709Z,3.97
2022-10-20T09:55:57.606Z,4.47
2022-10-20T09:58:33.969Z,5.05
2022-10-20T10:01:05.093Z,5.60
2022-10-20T10:03:46.781Z,4.68
2022-10-20T10:06:40.474Z,6.18
2022-10-20T10:09:32.750Z,4.85
2022-10-20T10:12:16.851Z,6.40
2022-10-20T10:15:06.013Z,8.32
2022-10-20T10:17:41.220Z,7.47
2022-10-20T10:20:33.273Z,6.63
2022-10-20T10:23:23.184Z,6.38
2022-10-20T10:25:51.351Z,6.70
2022-10-20T10:28:38.955Z,4.88
2022-10-20T10:31:24.446Z,5.60
2022-10-20T10:34:01.473Z,6.40
2022-10-20T10:36:32.214Z,4.95
2022-10-20T10:38:59.411Z,5.68
2022-10-20T10:41:44.887Z,5.38
2022-10-20T10:44:24.795Z,5.10
2022-10-20T10:50:11.749Z,6.20
2022-10-20T10:53:03.255Z,4.68
2022-10-20T10:55:48.291Z,4.93
2022-10-20T10:58:31.393Z,4.95
2022-10-20T11:01:16.546Z,4.55
2022-10-20T11:03:58.739Z,5.60
2022-10-20T11:06:25.406Z,5.55
2022-10-20T11:09:05.840Z,6.78
2022-10-20T11:11:37.853Z,5.00
2022-10-20T11:14:58.385Z,4.45
2022-10-20T11:17:53.069Z,5.07
2022-10-20T11:20:20.005Z,4.85
2022-10-20T11:23:09.641Z,4.78
2022-10-20T11:25:59.148Z,5.68
2022-10-20T11:28:30.432Z,5.82
2022-10-20T11:30:59.336Z,6.13
2022-10-20T11:33:49.205Z,6.67
2022-10-20T11:38:54.705Z,5.75
2022-10-20T11:41:38.653Z,5.57
2022-10-20T11:44:13.488Z,5.57
2022-10-20T11:46:48.565Z,4.95
2022-10-20T11:49:15.296Z,4.85
2022-10-20T11:52:00.953Z,6.15
2022-10-20T11:54:39.867Z,6.45
2022-10-20T11:57:15.878Z,6.00
2022-10-20T12:00:00.651Z,6.07
2022-10-20T12:03:00.951Z,7.22
2022-10-20T12:05:27.595Z,6.05
2022-10-20T12:08:28.317Z,5.65
2022-10-20T12:11:07.048Z,6.35
2022-10-20T12:13:45.906Z,6.85
2022-10-20T12:16:12.770Z,5.53
2022-10-20T12:18:39.653Z,5.47
2022-10-20T12:21:11.137Z,6.05
2022-10-20T12:23:43.906Z,5.53
2022-10-20T12:26:35.262Z,7.50
2022-10-20T12:29:42.095Z,8.63
2022-10-20T12:32:27.639Z,7.47
2022-10-20T12:34:57.272Z,8.63
2022-10-20T12:37:23.979Z,10.45
2022-10-20T12:39:53.221Z,11.50
2022-10-20T12:42:21.444Z,11.70
2022-10-20T12:44:48.531Z,12.60
2022-10-20T12:47:23.706Z,9.63
2022-10-20T12:50:39.558Z,11.82
2022-10-20T12:53:28.350Z,10.68
2022-10-20T12:56:21.736Z,11.25
2022-10-20T12:59:27.439Z,11.38
2022-10-20T13:02:09.227Z,9.30
2022-10-20T13:05:06.674Z,10.48
2022-10-20T13:07:48.385Z,9.93
2022-10-20T13:10:30.259Z,8.65
2022-10-20T13:13:02.858Z,7.38
2022-10-20T13:15:31.455Z,6.13
2022-10-20T13:18:03.214Z,5.82
2022-10-20T13:20:37.797Z,8.07
2022-10-20T13:23:05.104Z,6.18
2022-10-20T13:25:53.470Z,7.50
2022-10-20T13:28:29.323Z,8.60
2022-10-20T13:30:56.034Z,7.15
2022-10-20T13:34:03.157Z,7.07
2022-10-20T13:36:36.177Z,8.15
2022-10-20T13:39:27.640Z,7.78
2022-10-20T13:41:57.103Z,8.32
2022-10-20T13:44:32.092Z,6.40
2022-10-20T13:46:58.934Z,8.68
2022-10-20T13:49:51.883Z,6.57
2022-10-20T13:52:21.688Z,7.55
2022-10-20T13:54:51.308Z,5.72
2022-10-20T13:57:28.321Z,6.38
2022-10-20T14:00:00.695Z,6.90
2022-10-20T14:02:27.324Z,8.18
2022-10-20T14:05:13.526Z,7.47
2022-10-20T14:07:44.663Z,9.20
2022-10-20T14:10:24.172Z,6.93
2022-10-20T14:12:51.802Z,6.30
2022-10-20T14:15:30.978Z,6.05
2022-10-20T14:18:01.117Z,6.68
2022-10-20T14:20:29.385Z,5.85
2022-10-20T14:22:59.057Z,6.18
2022-10-20T14:25:27.704Z,6.88
2022-10-20T14:27:56.677Z,5.85
2022-10-20T14:30:24.331Z,6.27
2022-10-20T14:32:51.741Z,5.50
2022-10-20T14:35:26.254Z,6.90
2022-10-20T14:37:58.657Z,6.20
2022-10-20T14:40:52.873Z,6.13
2022-10-20T14:43:41.169Z,6.80
2022-10-20T14:46:11.402Z,7.50
2022-10-20T14:48:44.435Z,6.57
2022-10-20T14:51:33.032Z,6.20
2022-10-20T14:54:21.148Z,5.47
2022-10-20T14:56:51.231Z,7.10
2022-10-20T14:59:27.341Z,5.97
2022-10-20T15:02:13.752Z,5.90
2022-10-20T15:04:42.374Z,5.30
2022-10-20T15:07:35.419Z,4.93
2022-10-20T15:10:14.522Z,5.70
2022-10-20T15:12:44.632Z,6.40
2022-10-20T15:15:11.267Z,5.05
2022-10-20T15:17:46.198Z,7.32
2022-10-20T15:20:33.323Z,5.65
2022-10-20T15:23:09.108Z,7.00
2022-10-20T15:25:54.664Z,5.45
2022-10-20T15:28:25.511Z,6.28
2022-10-20T15:30:52.507Z,5.80
2022-10-20T15:33:19.567Z,5.78
2022-10-20T15:35:47.871Z,7.03
2022-10-20T15:38:15.249Z,6.85
2022-10-20T15:40:42.651Z,7.72
2022-10-20T15:43:14.674Z,6.25
2022-10-20T15:45:45.216Z,6.32
2022-10-20T15:48:11.986Z,6.68
2022-10-20T15:50:39.658Z,7.40
2022-10-20T15:53:06.832Z,5.93
2022-10-20T15:55:37.511Z,6.03
2022-10-20T15:58:04.419Z,6.40
2022-10-20T16:00:31.178Z,7.72
2022-10-20T16:02:57.921Z,7.53
2022-10-20T16:05:25.798Z,6.75
2022-10-20T16:07:54.324Z,6.95
2022-10-20T16:10:29.616Z,7.60
2022-10-20T16:12:57.224Z,7.60
2022-10-20T16:15:28.863Z,6.10
2022-10-20T16:17:58.269Z,5.60
2022-10-20T16:20:25.495Z,6.63
2022-10-20T16:22:52.519Z,7.35
2022-10-20T16:25:19.335Z,6.15
2022-10-20T16:27:46.203Z,7.13
2022-10-20T16:30:13.017Z,7.03
2022-10-20T16:32:40.235Z,8.00
2022-10-20T16:35:07.416Z,7.78
2022-10-20T16:37:34.603Z,7.22
2022-10-20T16:40:01.549Z,6.60
2022-10-20T16:42:32.695Z,8.10
2022-10-20T16:44:59.407Z,7.40
2022-10-20T16:47:26.505Z,8.77
2022-10-20T16:49:53.298Z,7.97
2022-10-20T16:52:20.361Z,9.20
2022-10-20T16:54:47.160Z,7.68
2022-10-20T16:57:14.036Z,6.72
2022-10-20T16:59:42.558Z,6.38
2022-10-20T17:02:12.553Z,7.80
2022-10-20T17:07:08.795Z,9.65
2022-10-20T17:09:35.646Z,7.43
2022-10-20T17:12:02.390Z,8.10
2022-10-20T17:14:29.105Z,9.40
2022-10-20T17:16:55.993Z,7.82
2022-10-20T17:19:22.859Z,9.95
2022-10-20T17:21:52.487Z,10.05
2022-10-20T17:24:22.052Z,9.35
2022-10-20T17:26:48.810Z,9.57
2022-10-20T17:29:15.522Z,7.88
2022-10-20T17:31:43.387Z,8.15
2022-10-20T17:34:10.192Z,8.70
2022-10-20T17:36:36.956Z,8.10
2022-10-20T17:39:07.210Z,7.03
2022-10-20T17:41:34.145Z,9.63
2022-10-20T17:44:02.775Z,9.13
2022-10-20T17:46:29.606Z,8.52
2022-10-20T17:48:56.498Z,6.63
2022-10-20T17:51:27.760Z,6.55
2022-10-20T17:53:58.229Z,7.95
2022-10-20T17:56:35.973Z,8.27
2022-10-20T17:59:05.257Z,8.40
2022-10-20T18:01:35.052Z,8.55
2022-10-20T18:04:05.630Z,9.20
2022-10-20T18:06:34.731Z,8.55
2022-10-20T18:09:06.759Z,8.43
2022-10-20T18:11:35.558Z,9.65
2022-10-20T18:14:03.116Z,7.85
2022-10-20T18:16:32.441Z,10.70
2022-10-20T18:19:00.027Z,10.32
2022-10-20T18:21:28.933Z,8.38
2022-10-20T18:24:02.441Z,9.10
2022-10-20T18:26:31.092Z,10.13
2022-10-20T18:28:59.738Z,9.18
2022-10-20T18:31:30.752Z,9.75
2022-10-20T18:34:04.155Z,10.35
2022-10-20T18:36:31.379Z,9.05
2022-10-20T18:38:59.513Z,8.68
2022-10-20T18:41:29.646Z,8.25
2022-10-20T18:43:59.142Z,9.32
2022-10-20T18:46:27.334Z,9.75
2022-10-20T18:48:54.908Z,9.13
2022-10-20T18:51:22.222Z,8.20
2022-10-20T18:53:53.097Z,8.23
2022-10-20T18:56:22.158Z,11.88
2022-10-20T18:58:59.630Z,8.67
2022-10-20T19:01:31.983Z,10.35
2022-10-20T19:03:59.782Z,9.27
2022-10-20T19:06:35.164Z,10.18
2022-10-20T19:09:04.910Z,11.55
2022-10-20T19:11:34.421Z,10.82
2022-10-20T19:14:01.852Z,9.75
2022-10-20T19:16:31.208Z,8.95
2022-10-20T19:19:00.972Z,10.05
2022-10-20T19:21:28.722Z,9.77
2022-10-20T19:24:04.494Z,10.15
2022-10-20T19:26:57.414Z,10.32
2022-10-20T19:29:29.805Z,9.20
2022-10-20T19:32:01.914Z,11.20
2022-10-20T19:34:30.758Z,11.10
2022-10-20T19:36:58.282Z,11.70
2022-10-20T19:39:28.842Z,12.65
2022-10-20T19:41:57.784Z,11.40
2022-10-20T19:44:24.915Z,11.57
2022-10-20T19:46:52.754Z,10.98
2022-10-20T19:49:21.234Z,11.18
2022-10-20T19:51:48.271Z,12.77
2022-10-20T19:54:15.181Z,9.65
2022-10-20T19:56:42.796Z,10.93
2022-10-20T19:59:10.468Z,9.63
2022-10-20T20:01:37.853Z,10.52
2022-10-20T20:04:06.471Z,10.82
2022-10-20T20:06:34.181Z,8.15
2022-10-20T20:09:04.629Z,10.63
2022-10-20T20:11:31.869Z,8.95
2022-10-20T20:14:01.268Z,8.07
2022-10-20T20:16:28.435Z,10.10
2022-10-20T20:18:55.659Z,7.07
2022-10-20T20:21:23.387Z,7.00
2022-10-20T20:24:00.221Z,7.40
2022-10-20T20:26:33.161Z,9.55
2022-10-20T20:29:00.106Z,8.80
2022-10-20T20:31:28.265Z,7.03
2022-10-20T20:33:57.036Z,7.35
2022-10-20T20:36:27.150Z,7.70
2022-10-20T20:38:58.545Z,6.22
2022-10-20T20:41:31.344Z,7.70
2022-10-20T20:43:58.152Z,6.70
2022-10-20T20:46:28.999Z,7.72
2022-10-20T20:48:58.748Z,7.72
2022-10-20T20:51:27.102Z,5.68
2022-10-20T20:53:53.840Z,6.60
2022-10-20T20:56:23.136Z,10.52
2022-10-20T20:58:55.189Z,7.63
2022-10-20T21:01:25.347Z,6.75
2022-10-20T21:03:56.589Z,6.60
2022-10-20T21:06:33.280Z,8.02
2022-10-20T21:09:01.659Z,7.05
2022-10-20T21:11:32.902Z,9.18
2022-10-20T21:13:59.667Z,6.85
2022-10-20T21:16:37.043Z,8.23
2022-10-20T21:19:10.492Z,7.05
2022-10-20T21:21:39.793Z,7.45
2022-10-20T21:24:06.983Z,5.90
2022-10-20T21:26:33.907Z,7.13
2022-10-20T21:29:00.748Z,9.15
2022-10-20T21:31:28.804Z,7.45
2022-10-20T21:34:01.542Z,7.53
2022-10-20T21:36:31.505Z,10.90
2022-10-20T21:41:27.977Z,12.10
2022-10-20T21:43:56.945Z,11.82
2022-10-20T21:46:28.225Z,13.60
2022-10-20T21:49:03.824Z,12.65
2022-10-20T21:51:35.989Z,10.82
2022-10-20T21:54:06.206Z,13.23
2022-10-20T21:56:37.442Z,10.63
2022-10-20T21:59:06.381Z,13.50
2022-10-20T22:01:33.664Z,12.32
2022-10-20T22:04:01.141Z,11.60
2022-10-20T22:06:28.214Z,12.40
2022-10-20T22:08:57.803Z,12.00
2022-10-20T22:11:28.157Z,11.43
2022-10-20T22:13:55.277Z,12.32
2022-10-20T22:16:25.037Z,9.73
2022-10-20T22:19:00.017Z,8.52
2022-10-20T22:21:27.944Z,9.63
2022-10-20T22:23:56.688Z,8.52
2022-10-20T22:26:28.325Z,8.32
2022-10-20T22:28:55.197Z,7.20
2022-10-20T22:31:23.244Z,7.28
2022-10-20T22:33:55.526Z,7.20
2022-10-20T22:36:23.146Z,8.85
2022-10-20T22:38:50.145Z,9.50
2022-10-20T22:41:17.564Z,7.32
2022-10-20T22:43:44.572Z,8.60
2022-10-20T22:46:11.315Z,10.30
2022-10-20T22:48:38.347Z,9.57
2022-10-20T22:51:06.964Z,9.40
2022-10-20T22:53:33.671Z,8.20
2022-10-20T22:56:10.624Z,8.38
2022-10-20T22:58:37.624Z,11.18
2022-10-20T23:01:12.841Z,10.32
2022-10-20T23:03:40.232Z,9.05
2022-10-20T23:06:19.634Z,8.57
2022-10-20T23:08:49.166Z,7.43
2022-10-20T23:11:17.194Z,9.38
2022-10-20T23:13:44.687Z,8.15
2022-10-20T23:16:12.082Z,7.65
2022-10-20T23:18:39.681Z,7.10
2022-10-20T23:21:07.280Z,7.10
2022-10-20T23:23:37.943Z,8.27
2022-10-20T23:26:08.193Z,7.68
2022-10-20T23:28:35.831Z,8.18
2022-10-20T23:31:13.041Z,8.88
2022-10-20T23:33:41.634Z,7.55
2022-10-20T23:36:09.342Z,7.13
2022-10-20T23:38:36.572Z,8.25
2022-10-20T23:41:04.245Z,9.13
2022-10-20T23:43:31.804Z,8.60
2022-10-20T23:45:58.929Z,8.07
2022-10-20T23:48:25.861Z,6.50
2022-10-20T23:50:52.633Z,8.13
2022-10-20T23:53:19.451Z,4.60
2022-10-20T23:55:46.175Z,5.80
2022-10-20T23:58:12.932Z,8.27
